createdAt,value
2019-06-01T00:00:10.864Z,98296.22
2019-06-01T00:02:28.059Z,98290.45
2019-06-01T00:04:54.623Z,98294.27
2019-06-01T00:07:21.246Z,98293.98
2019-06-01T00:09:47.763Z,98296.72
2019-06-01T00:12:14.405Z,98291.80
2019-06-01T00:14:41.682Z,98291.27
2019-06-01T00:17:08.468Z,98293.72
2019-06-01T00:19:35.193Z,98294.00
2019-06-01T00:22:01.714Z,98298.08
2019-06-01T00:24:28.214Z,98290.98
2019-06-01T00:26:54.761Z,98288.53
2019-06-01T00:29:21.321Z,98281.69
2019-06-01T00:31:48.039Z,98281.98
2019-06-01T00:34:14.640Z,98271.91
2019-06-01T00:36:41.541Z,98265.36
2019-06-01T00:39:08.239Z,98274.12
2019-06-01T00:41:34.777Z,98270.30
2019-06-01T00:44:01.399Z,98261.83
2019-06-01T00:46:27.919Z,98264.30
2019-06-01T00:48:54.911Z,98262.91
2019-06-01T00:51:21.622Z,98257.95
2019-06-01T00:53:49.577Z,98260.20
2019-06-01T00:56:16.367Z,98255.06
2019-06-01T00:58:43.656Z,98261.66
2019-06-01T01:01:10.257Z,98257.61
2019-06-01T01:03:36.918Z,98263.36
2019-06-01T01:06:03.758Z,98259.27
2019-06-01T01:08:30.330Z,98267.78
2019-06-01T01:10:57.179Z,98264.28
2019-06-01T01:13:25.219Z,98262.44
2019-06-01T01:15:51.817Z,98261.92
2019-06-01T01:18:18.533Z,98264.70
2019-06-01T01:20:46.012Z,98265.61
2019-06-01T01:23:12.620Z,98267.59
2019-06-01T01:25:39.258Z,98263.80
2019-06-01T01:28:05.885Z,98269.03
2019-06-01T01:30:33.023Z,98269.87
2019-06-01T01:33:02.937Z,98270.75
2019-06-01T01:35:29.553Z,98270.53
2019-06-01T01:37:56.530Z,98268.12
2019-06-01T01:40:23.089Z,98271.70
2019-06-01T01:42:50.552Z,98263.83
2019-06-01T01:45:17.775Z,98263.30
2019-06-01T01:47:44.409Z,98262.50
2019-06-01T01:50:11.135Z,98266.33
2019-06-01T01:52:37.671Z,98264.43
2019-06-01T01:55:04.749Z,98269.92
2019-06-01T01:57:31.416Z,98262.00
2019-06-01T01:59:59.393Z,98260.94
2019-06-01T02:02:26.099Z,98259.29
2019-06-01T02:04:53.673Z,98256.64
2019-06-01T02:07:20.317Z,98258.55
2019-06-01T02:09:47.084Z,98255.25
2019-06-01T02:12:13.615Z,98251.14
2019-06-01T02:14:40.355Z,98253.63
2019-06-01T02:17:07.450Z,98248.20
2019-06-01T02:19:36.491Z,98256.16
2019-06-01T02:22:03.682Z,98259.44
2019-06-01T02:24:30.274Z,98256.98
2019-06-01T02:26:57.234Z,98251.85
2019-06-01T02:29:24.001Z,98249.14
2019-06-01T02:31:50.613Z,98255.13
2019-06-01T02:34:17.243Z,98248.86
2019-06-01T02:36:43.819Z,98252.14
2019-06-01T02:39:12.513Z,98249.70
2019-06-01T02:41:39.180Z,98242.34
2019-06-01T02:44:06.372Z,98245.61
2019-06-01T02:46:35.745Z,98247.00
2019-06-01T02:49:02.510Z,98248.91
2019-06-01T02:51:30.077Z,98251.93
2019-06-01T02:53:57.674Z,98257.98
2019-06-01T02:56:24.385Z,98256.62
2019-06-01T02:58:50.936Z,98254.98
2019-06-01T03:01:28.685Z,98259.91
2019-06-01T03:03:55.337Z,98256.37
2019-06-01T03:06:22.078Z,98253.39
2019-06-01T03:08:49.793Z,98259.94
2019-06-01T03:11:18.562Z,98262.65
2019-06-01T03:13:45.325Z,98263.48
2019-06-01T03:16:12.784Z,98265.40
2019-06-01T03:18:39.616Z,98264.89
2019-06-01T03:21:06.405Z,98265.45
2019-06-01T03:23:33.967Z,98262.19
2019-06-01T03:26:02.093Z,98265.46
2019-06-01T03:28:30.776Z,98269.01
2019-06-01T03:30:57.447Z,98264.10
2019-06-01T03:33:24.087Z,98263.81
2019-06-01T03:35:50.767Z,98262.45
2019-06-01T03:38:17.384Z,98261.92
2019-06-01T03:40:45.039Z,98263.83
2019-06-01T03:43:11.851Z,98265.46
2019-06-01T03:45:38.419Z,98261.36
2019-06-01T03:48:06.637Z,98262.98
2019-06-01T03:50:33.614Z,98266.49
2019-06-01T03:53:01.652Z,98267.34
2019-06-01T03:55:28.483Z,98266.53
2019-06-01T03:57:55.959Z,98271.98
2019-06-01T04:00:22.579Z,98271.67
2019-06-01T04:02:49.262Z,98265.67
2019-06-01T04:05:15.891Z,98265.95
2019-06-01T04:07:42.539Z,98270.03
2019-06-01T04:10:09.991Z,98267.03
2019-06-01T04:12:36.855Z,98270.03
2019-06-01T04:15:10.125Z,98269.22
2019-06-01T04:17:32.962Z,98266.48
2019-06-01T04:19:59.732Z,98263.75
2019-06-01T04:22:26.335Z,98262.11
2019-06-01T04:24:53.058Z,98262.66
2019-06-01T04:27:19.807Z,98258.84
2019-06-01T04:29:46.513Z,98254.47
2019-06-01T04:32:13.210Z,98262.11
2019-06-01T04:34:39.914Z,98256.11
2019-06-01T04:37:07.071Z,98257.20
2019-06-01T04:39:33.594Z,98255.01
2019-06-01T04:42:00.418Z,98258.27
2019-06-01T04:44:27.200Z,98258.00
2019-06-01T04:46:54.060Z,98261.27
2019-06-01T04:49:20.877Z,98256.62
2019-06-01T04:51:47.698Z,98262.61
2019-06-01T04:54:16.021Z,98263.94
2019-06-01T04:56:42.817Z,98269.39
2019-06-01T04:59:10.896Z,98272.38
2019-06-01T05:01:37.551Z,98272.64
2019-06-01T05:04:04.927Z,98277.81
2019-06-01T05:06:31.920Z,98274.80
2019-06-01T05:08:59.573Z,98276.14
2019-06-01T05:11:26.311Z,98275.26
2019-06-01T05:13:52.986Z,98268.68
2019-06-01T05:16:19.770Z,98274.94
2019-06-01T05:18:46.467Z,98267.25
2019-06-01T05:21:13.426Z,98271.56
2019-06-01T05:23:41.739Z,98271.55
2019-06-01T05:26:08.767Z,98271.79
2019-06-01T05:28:35.436Z,98272.03
2019-06-01T05:31:01.964Z,98268.13
2019-06-01T05:33:36.877Z,98273.55
2019-06-01T05:35:57.168Z,98269.97
2019-06-01T05:38:23.801Z,98267.20
2019-06-01T05:40:50.453Z,98264.95
2019-06-01T05:43:19.218Z,98264.36
2019-06-01T05:45:45.638Z,98255.31
2019-06-01T05:48:16.276Z,98259.10
2019-06-01T05:50:40.887Z,98263.43
2019-06-01T05:53:07.508Z,98261.70
2019-06-01T05:55:34.339Z,98267.66
2019-06-01T05:58:01.065Z,98266.25
2019-06-01T06:00:46.227Z,98257.45
2019-06-01T06:03:16.236Z,98259.27
2019-06-01T06:05:41.554Z,98260.82
2019-06-01T06:08:08.181Z,98262.38
2019-06-01T06:10:34.944Z,98266.44
2019-06-01T06:13:01.669Z,98266.33
2019-06-01T06:15:28.344Z,98270.64
2019-06-01T06:17:55.410Z,98272.73
2019-06-01T06:22:52.698Z,98276.88
2019-06-01T06:25:19.463Z,98288.64
2019-06-01T06:27:46.237Z,98287.47
2019-06-01T06:30:13.327Z,98278.87
2019-06-01T06:32:40.132Z,98276.30
2019-06-01T06:35:06.896Z,98284.91
2019-06-01T06:37:33.459Z,98278.16
2019-06-01T06:40:00.211Z,98278.58
2019-06-01T06:42:26.924Z,98284.20
2019-06-01T06:44:53.491Z,98285.47
2019-06-01T06:47:20.951Z,98285.66
2019-06-01T06:49:48.096Z,98286.69
2019-06-01T06:52:15.301Z,98286.58
2019-06-01T06:54:41.895Z,98294.10
2019-06-01T06:57:08.593Z,98293.72
2019-06-01T06:59:35.353Z,98291.72
2019-06-01T07:02:02.075Z,98290.86
2019-06-01T07:04:29.137Z,98288.48
2019-06-01T07:06:56.125Z,98292.68
2019-06-01T07:09:23.970Z,98285.27
2019-06-01T07:11:50.975Z,98283.47
2019-06-01T07:14:19.205Z,98289.80
2019-06-01T07:16:46.304Z,98290.98
2019-06-01T07:19:13.169Z,98293.79
2019-06-01T07:21:40.042Z,98296.87
2019-06-01T07:24:06.735Z,98300.73
2019-06-01T07:26:33.531Z,98299.42
2019-06-01T07:29:00.107Z,98298.09
2019-06-01T07:31:28.298Z,98296.97
2019-06-01T07:33:54.976Z,98291.83
2019-06-01T07:36:22.242Z,98294.06
2019-06-01T07:38:49.381Z,98291.23
2019-06-01T07:41:16.200Z,98290.15
2019-06-01T07:43:43.575Z,98284.91
2019-06-01T07:46:10.496Z,98283.61
2019-06-01T07:48:37.225Z,98277.56
2019-06-01T07:51:04.045Z,98273.23
2019-06-01T07:53:31.542Z,98272.06
2019-06-01T07:55:58.221Z,98268.51
2019-06-01T07:58:25.207Z,98269.78
2019-06-01T08:00:51.955Z,98265.37
2019-06-01T08:03:18.817Z,98264.27
2019-06-01T08:05:45.583Z,98260.12
2019-06-01T08:08:12.505Z,98260.59
2019-06-01T08:10:39.069Z,98263.66
2019-06-01T08:13:06.100Z,98262.66
2019-06-01T08:15:32.884Z,98264.74
2019-06-01T08:17:59.622Z,98260.41
2019-06-01T08:20:26.351Z,98260.88
2019-06-01T08:22:53.110Z,98253.92
2019-06-01T08:25:19.844Z,98255.34
2019-06-01T08:27:46.536Z,98249.68
2019-06-01T08:30:13.670Z,98247.00
2019-06-01T08:32:40.380Z,98248.30
2019-06-01T08:35:09.410Z,98240.70
2019-06-01T08:37:35.938Z,98238.50
2019-06-01T08:40:03.056Z,98242.17
2019-06-01T08:42:29.737Z,98243.22
2019-06-01T08:44:56.590Z,98233.18
2019-06-01T08:47:23.643Z,98233.41
2019-06-01T08:49:50.423Z,98235.03
2019-06-01T08:52:17.227Z,98229.25
2019-06-01T09:35:11.573Z,98212.40
2019-06-01T09:37:47.691Z,98216.20
2019-06-01T09:40:14.532Z,98210.89
2019-06-01T09:42:41.300Z,98210.55
2019-06-01T09:45:08.745Z,98201.55
2019-06-01T09:47:35.689Z,98206.18
2019-06-01T09:50:04.966Z,98208.17
2019-06-01T09:52:31.680Z,98209.22
2019-06-01T09:54:58.381Z,98209.09
2019-06-01T09:57:25.138Z,98209.80
2019-06-01T09:59:51.907Z,98201.70
2019-06-01T10:02:18.827Z,98200.44
2019-06-01T10:04:45.784Z,98205.19
2019-06-01T10:07:12.526Z,98202.47
2019-06-01T10:09:39.126Z,98205.57
2019-06-01T10:12:05.845Z,98202.44
2019-06-01T10:14:32.444Z,98201.52
2019-06-01T10:16:59.258Z,98194.00
2019-06-01T10:19:26.149Z,98189.59
2019-06-01T10:21:52.775Z,98184.45
2019-06-01T10:24:19.544Z,98178.97
2019-06-01T10:26:46.120Z,98177.86
2019-06-01T10:29:12.868Z,98180.72
2019-06-01T10:31:41.433Z,98180.83
2019-06-01T10:34:08.387Z,98178.88
2019-06-01T11:07:08.442Z,98151.81
2019-06-01T11:09:36.917Z,98149.48
2019-06-01T11:12:03.827Z,98144.52
2019-06-01T11:14:30.655Z,98144.03
2019-06-01T11:16:57.526Z,98138.18
2019-06-01T11:19:25.209Z,98136.23
2019-06-01T11:21:52.058Z,98138.77
2019-06-01T11:24:19.133Z,98136.30
2019-06-01T11:26:45.847Z,98133.30
2019-06-01T11:29:13.267Z,98134.34
2019-06-01T11:31:40.211Z,98123.95
2019-06-01T11:34:07.013Z,98130.78
2019-06-01T11:36:34.233Z,98121.65
2019-06-01T11:39:01.032Z,98124.30
2019-06-01T11:41:27.600Z,98119.10
2019-06-01T11:43:54.364Z,98116.66
2019-06-01T11:46:21.671Z,98111.55
2019-06-01T11:48:48.498Z,98103.89
2019-06-01T11:51:15.266Z,98101.16
2019-06-01T11:53:43.346Z,98103.66
2019-06-01T11:56:10.206Z,98103.49
2019-06-01T11:58:37.180Z,98096.44
2019-06-01T12:01:04.053Z,98097.21
2019-06-01T12:03:30.738Z,98096.09
2019-06-01T12:05:57.413Z,98096.35
2019-06-01T12:08:24.229Z,98085.82
2019-06-01T12:10:50.964Z,98086.98
2019-06-01T12:13:17.825Z,98084.00
2019-06-01T12:15:44.542Z,98088.67
2019-06-01T12:18:12.294Z,98084.82
2019-06-01T12:20:38.985Z,98079.75
2019-06-01T12:23:05.691Z,98071.05
2019-06-01T12:25:35.779Z,98072.59
2019-06-01T12:28:02.588Z,98064.34
2019-06-01T12:30:29.191Z,98061.78
2019-06-01T12:32:56.058Z,98067.28
2019-06-01T12:35:23.124Z,98065.45
2019-06-01T12:38:05.595Z,98063.34
2019-06-01T12:40:18.569Z,98056.22
2019-06-01T12:42:46.048Z,98057.97
2019-06-01T12:45:17.070Z,98055.10
2019-06-01T12:47:44.037Z,98050.97
2019-06-01T12:50:10.893Z,98046.32
2019-06-01T12:52:37.530Z,98049.84
2019-06-01T12:55:04.536Z,98040.34
2019-06-01T12:57:31.296Z,98045.38
2019-06-01T12:59:58.176Z,98032.28
2019-06-01T13:02:24.711Z,98036.90
2019-06-01T13:04:51.418Z,98028.92
2019-06-01T13:07:18.308Z,98030.61
2019-06-01T13:09:46.122Z,98027.97
2019-06-01T13:12:13.354Z,98024.45
2019-06-01T13:28:46.390Z,98007.62
2019-06-01T13:31:13.168Z,97994.61
2019-06-01T13:33:42.220Z,97997.45
2019-06-01T13:36:09.195Z,97992.94
2019-06-01T13:38:36.031Z,97988.60
2019-06-01T13:41:02.996Z,97983.17
2019-06-01T13:43:29.866Z,97984.35
2019-06-01T13:45:56.555Z,97977.27
2019-06-01T13:48:23.316Z,97979.06
2019-06-01T13:50:50.197Z,97980.02
2019-06-01T13:53:16.888Z,97974.80
2019-06-01T13:55:44.059Z,97980.38
2019-06-01T13:58:11.033Z,97976.05
2019-06-01T14:00:37.687Z,97969.90
2019-06-01T14:03:04.539Z,97971.73
2019-06-01T14:05:31.208Z,97967.46
2019-06-01T14:07:57.947Z,97972.95
2019-06-01T14:10:24.605Z,97967.27
2019-06-01T14:12:53.491Z,97965.37
2019-06-01T14:15:20.295Z,97958.45
2019-06-01T14:17:48.029Z,97958.44
2019-06-01T14:20:15.006Z,97956.33
2019-06-01T14:22:41.784Z,97950.27
2019-06-01T14:25:14.313Z,97947.97
2019-06-01T14:27:38.878Z,97943.39
2019-06-01T14:30:06.191Z,97948.33
2019-06-01T14:32:35.192Z,97942.31
2019-06-01T14:35:01.854Z,97939.80
2019-06-01T14:37:28.552Z,97936.88
2019-06-01T14:39:55.454Z,97933.13
2019-06-01T14:42:22.226Z,97925.59
2019-06-01T14:44:49.284Z,97929.05
2019-06-01T14:47:18.648Z,97930.97
2019-06-01T14:49:44.597Z,97930.86
2019-06-01T14:52:11.254Z,97924.38
2019-06-01T14:54:38.071Z,97932.92
2019-06-01T14:57:04.831Z,97932.59
2019-06-01T14:59:31.654Z,97926.63
2019-06-01T15:01:58.498Z,97928.83
2019-06-01T15:04:25.246Z,97919.81
2019-06-01T15:06:52.402Z,97917.44
2019-06-01T15:09:20.056Z,97918.71
2019-06-01T15:11:48.743Z,97913.66
2019-06-01T15:14:15.638Z,97910.58
2019-06-01T15:16:42.519Z,97918.44
2019-06-01T15:19:09.334Z,97911.67
2019-06-01T15:21:36.022Z,97903.53
2019-06-01T15:24:02.955Z,97905.44
2019-06-01T15:26:29.717Z,97903.09
2019-06-01T15:28:57.090Z,97902.09
2019-06-01T15:31:23.738Z,97901.28
2019-06-01T15:33:53.279Z,97893.78
2019-06-01T15:36:20.414Z,97894.70
2019-06-01T15:38:51.653Z,97894.73
2019-06-01T15:41:18.408Z,97889.55
2019-06-01T15:43:45.260Z,97887.29
2019-06-01T15:46:14.682Z,97894.00
2019-06-01T15:48:41.736Z,97891.02
2019-06-01T15:51:08.508Z,97882.58
2019-06-01T15:53:35.257Z,97883.33
2019-06-01T15:56:03.419Z,97874.71
2019-06-01T15:58:30.371Z,97882.32
2019-06-01T16:00:57.227Z,97880.00
2019-06-01T16:03:24.021Z,97873.47
2019-06-01T16:05:50.830Z,97866.77
2019-06-01T16:08:17.537Z,97868.38
2019-06-01T16:10:44.170Z,97865.64
2019-06-01T16:13:11.073Z,97870.12
2019-06-01T16:15:37.887Z,97870.62
2019-06-01T16:18:04.692Z,97869.28
2019-06-01T16:20:31.235Z,97866.07
2019-06-01T16:22:58.139Z,97867.86
2019-06-01T16:25:24.923Z,97863.30
2019-06-01T16:27:51.696Z,97859.86
2019-06-01T16:30:18.733Z,97858.63
2019-06-01T16:32:45.396Z,97855.52
2019-06-01T16:35:12.096Z,97842.73
2019-06-01T16:37:39.164Z,97842.14
2019-06-01T16:40:10.281Z,97842.95
2019-06-01T16:42:36.696Z,97836.22
2019-06-01T16:45:04.030Z,97839.73
2019-06-01T16:47:31.162Z,97834.09
2019-06-01T16:49:57.865Z,97836.08
2019-06-01T16:52:25.114Z,97836.00
2019-06-01T16:54:51.967Z,97828.98
2019-06-01T16:57:18.741Z,97833.82
2019-06-01T16:59:45.550Z,97839.41
2019-06-01T17:02:12.449Z,97842.19
2019-06-01T17:04:39.387Z,97815.48
2019-06-01T17:07:08.536Z,97836.34
2019-06-01T17:09:35.041Z,97835.16
2019-06-01T17:12:03.037Z,97836.11
2019-06-01T17:14:31.214Z,97835.38
2019-06-01T17:16:58.994Z,97835.52
2019-06-01T17:19:26.101Z,97837.71
2019-06-01T17:21:53.853Z,97835.59
2019-06-01T17:24:20.578Z,97836.64
2019-06-01T17:26:47.276Z,97835.75
2019-06-01T17:29:14.054Z,97831.34
2019-06-01T17:31:53.920Z,97827.38
2019-06-01T17:34:11.692Z,97831.94
2019-06-01T17:36:38.285Z,97827.55
2019-06-01T17:39:06.086Z,97827.61
2019-06-01T17:41:33.074Z,97829.77
2019-06-01T17:44:00.563Z,97828.42
2019-06-01T17:46:27.262Z,97824.47
2019-06-01T17:48:53.979Z,97826.04
2019-06-01T17:51:21.025Z,97818.53
2019-06-01T17:53:47.843Z,97822.60
2019-06-01T17:56:14.691Z,97821.44
2019-06-01T17:58:41.445Z,97820.58
2019-06-01T18:01:08.233Z,97817.62
2019-06-01T18:03:34.759Z,97820.56
2019-06-01T18:06:01.837Z,97827.75
2019-06-01T18:08:28.485Z,97823.30
2019-06-01T18:10:55.390Z,97820.08
2019-06-01T18:13:22.168Z,97824.50
2019-06-01T18:15:50.289Z,97815.41
2019-06-01T18:18:17.186Z,97818.20
2019-06-01T18:20:43.970Z,97815.21
2019-06-01T18:23:11.407Z,97810.89
2019-06-01T18:25:38.855Z,97810.89
2019-06-01T18:28:06.817Z,97811.84
2019-06-01T18:30:33.929Z,97814.05
2019-06-01T18:33:00.845Z,97809.15
2019-06-01T18:35:27.643Z,97807.11
2019-06-01T18:37:55.444Z,97811.40
2019-06-01T18:40:23.452Z,97813.88
2019-06-01T18:42:54.542Z,97814.95
2019-06-01T18:45:21.478Z,97814.37
2019-06-01T18:47:48.842Z,97814.77
2019-06-01T18:50:17.511Z,97817.66
2019-06-01T18:52:44.378Z,97812.45
2019-06-01T18:55:12.754Z,97813.72
2019-06-01T18:57:40.599Z,97792.43
2019-06-01T19:00:10.535Z,97819.52
2019-06-01T19:02:36.295Z,97824.36
2019-06-01T19:05:04.840Z,97820.55
2019-06-01T19:07:31.731Z,97823.90
2019-06-01T19:09:58.550Z,97829.23
2019-06-01T19:12:25.367Z,97832.91
2019-06-01T19:14:52.260Z,97820.68
2019-06-01T19:17:19.012Z,97830.25
2019-06-01T19:19:45.660Z,97830.09
2019-06-01T19:22:12.574Z,97833.98
2019-06-01T19:24:39.660Z,97834.69
2019-06-01T19:27:06.828Z,97836.15
2019-06-01T19:29:33.692Z,97834.75
2019-06-01T19:32:00.670Z,97839.10
2019-06-01T19:34:27.931Z,97841.98
2019-06-01T19:36:54.684Z,97842.28
2019-06-01T19:39:22.199Z,97844.68
2019-06-01T19:41:48.900Z,97848.11
2019-06-01T19:44:15.845Z,97849.80
2019-06-01T19:46:42.802Z,97853.73
2019-06-01T19:49:10.847Z,97855.31
2019-06-01T19:51:37.653Z,97852.51
2019-06-01T19:54:04.531Z,97853.47
2019-06-01T19:56:31.163Z,97851.94
2019-06-01T19:59:09.911Z,97850.84
2019-06-01T20:01:37.202Z,97854.94
2019-06-01T20:04:04.166Z,97853.27
2019-06-01T20:06:30.939Z,97850.25
2019-06-01T20:08:57.924Z,97853.05
2019-06-01T20:11:24.615Z,97854.81
2019-06-01T20:13:51.397Z,97852.57
2019-06-01T20:16:20.232Z,97853.69
2019-06-01T20:18:47.186Z,97855.48
2019-06-01T20:21:14.045Z,97858.09
2019-06-01T20:23:40.910Z,97854.38
2019-06-01T20:26:07.614Z,97855.92
2019-06-01T20:28:34.534Z,97851.19
2019-06-01T20:31:01.244Z,97857.12
2019-06-01T20:33:28.042Z,97865.80
2019-06-01T20:35:55.833Z,97860.78
2019-06-01T20:38:23.331Z,97866.95
2019-06-01T20:40:50.225Z,97864.40
2019-06-01T20:43:16.937Z,97863.91
2019-06-01T20:45:43.668Z,97872.83
2019-06-01T20:48:10.534Z,97867.16
2019-06-01T20:50:37.245Z,97867.41
2019-06-01T20:53:04.180Z,97867.91
2019-06-01T20:55:30.973Z,97867.50
2019-06-01T20:57:57.721Z,97868.16
2019-06-01T21:00:24.658Z,97870.42
2019-06-01T21:02:51.443Z,97853.02
2019-06-01T21:05:18.177Z,97874.23
2019-06-01T21:07:45.016Z,97876.25
2019-06-01T21:10:14.034Z,97874.22
2019-06-01T21:12:45.420Z,97877.62
2019-06-01T21:15:09.650Z,97878.38
2019-06-01T21:17:36.558Z,97880.64
2019-06-01T21:20:04.856Z,97881.05
2019-06-01T21:22:31.733Z,97881.69
2019-06-01T21:24:58.757Z,97878.84
2019-06-01T21:27:25.603Z,97882.91
2019-06-01T21:29:52.957Z,97884.93
2019-06-01T21:32:25.578Z,97890.02
2019-06-01T21:34:52.923Z,97888.96
2019-06-01T21:37:19.754Z,97890.73
2019-06-01T21:39:46.610Z,97893.80
2019-06-01T21:42:13.505Z,97892.25
2019-06-01T21:44:40.409Z,97893.14
2019-06-01T21:47:07.392Z,97897.02
2019-06-01T21:49:34.280Z,97894.34
2019-06-01T21:52:01.127Z,97895.33
2019-06-01T21:54:27.928Z,97896.84
2019-06-01T21:56:54.864Z,97896.36
2019-06-01T21:59:22.717Z,97897.20
2019-06-01T22:01:49.513Z,97895.66
2019-06-01T22:04:16.721Z,97898.16
2019-06-01T22:06:51.159Z,97892.24
2019-06-01T22:09:19.114Z,97886.67
2019-06-01T22:11:45.797Z,97895.48
2019-06-01T22:14:12.648Z,97890.62
2019-06-01T22:16:39.289Z,97892.69
2019-06-01T22:19:05.988Z,97892.77
2019-06-01T22:21:32.742Z,97892.91
2019-06-01T22:23:59.452Z,97892.97
2019-06-01T22:26:26.419Z,97888.42
2019-06-01T22:28:53.253Z,97886.09
2019-06-01T22:31:20.234Z,97888.41
2019-06-01T22:33:46.949Z,97884.67
2019-06-01T22:36:13.757Z,97885.30
2019-06-01T22:38:40.427Z,97885.19
2019-06-01T22:41:07.171Z,97886.69
2019-06-01T22:43:45.693Z,97884.61
2019-06-01T22:46:02.646Z,97893.47
2019-06-01T22:48:29.344Z,97894.09
2019-06-01T22:50:56.149Z,97889.48
2019-06-01T22:53:24.045Z,97886.23
2019-06-01T22:55:50.775Z,97880.81
2019-06-01T22:58:17.456Z,97882.81
2019-06-01T23:00:44.254Z,97886.73
2019-06-01T23:03:10.972Z,97883.75
2019-06-01T23:05:37.622Z,97888.52
2019-06-01T23:08:04.561Z,97886.67
2019-06-01T23:10:34.951Z,97880.63
2019-06-01T23:12:59.824Z,97878.12
2019-06-01T23:15:27.928Z,97882.31
2019-06-01T23:17:54.904Z,97880.13
2019-06-01T23:20:21.758Z,97871.70
2019-06-01T23:22:48.544Z,97877.82
2019-06-01T23:25:15.217Z,97873.27
2019-06-01T23:27:42.168Z,97870.08
2019-06-01T23:30:09.050Z,97871.52
2019-06-01T23:32:35.606Z,97871.86
2019-06-01T23:35:02.499Z,97869.67
2019-06-01T23:37:29.241Z,97871.61
2019-06-01T23:39:55.814Z,97874.97
2019-06-01T23:42:22.622Z,97878.65
2019-06-01T23:44:49.248Z,97874.59
2019-06-01T23:47:15.943Z,97869.98
2019-06-01T23:49:42.697Z,97866.17
2019-06-01T23:52:09.440Z,97867.30
2019-06-01T23:54:36.091Z,97865.73
2019-06-01T23:57:02.866Z,97862.23
2019-06-01T23:59:30.893Z,97863.45
